Sonic Adventure (DX): Overall Rankings

Records: Times | Rings | Scores | Races | Bosses | Freestyle
Leaders: Times | Rings | Scores | Races | Bosses | Freestyle | Overall
Rank Player Percent Points Date Grade
1 Sonicspeedruner 98.0% 338 04-19-18 S
2 Gamepro011 98.0% 347 04-19-18 A
3 DarkPolarNight 96.7% 564 04-19-18 A
4 Jawzun 93.2% 1183 04-19-18 A
5 Dashjump 91.6% 1452 04-19-18 A
6 DarkspinesSonic 89.8% 1770 04-19-18 A
7 Avento128bits 89.6% 1805 04-19-18 A
8 ike6252 89.4% 1839 04-19-18 A
9 F-Man 87.6% 2155 04-19-18 A
10 Coolfansonic 87.1% 2242 04-19-18 A
11 HyperSonic7701 84.3% 2735 04-19-18 A
12 TheRealShadnic 84.0% 2789 04-19-18 A
13 yoshifan 82.6% 3031 04-19-18 A
14 frankoredstrato 82.2% 3099 04-19-18 A
15 francisco 81.2% 3269 04-19-18 A
16 Marth 81.1% 3299 04-19-18 A
17 InferSaime 79.8% 3518 04-19-18 B
18 PfoSonic 79.3% 3598 04-19-18 B
19 Paragod 78.9% 3671 04-19-18 B
20 THC98 78.0% 3825 04-19-18 B
21 Stefan 75.7% 4240 04-19-18 B
22 RPGnutter 73.5% 4612 04-19-18 B
23 bertin 73.4% 4632 04-19-18 B
24 sonicam 71.3% 5004 04-19-18 B
25 drminus 70.0% 5236 04-19-18 B
26 xXMegaManXx 69.9% 5250 04-19-18 B
27 Dekuboy 66.3% 5884 04-19-18 B
28 chainchumper 65.8% 5962 04-19-18 B
29 Combo 65.4% 6035 04-19-18 B
30 chaos shadow 64.8% 6136 04-19-18 B
31 SkyLights 64.3% 6233 04-19-18 B
32 Diamond 62.2% 6591 04-19-18 B
33 Auriman1 60.1% 6962 04-19-18 B
34 GerbilSoft 60.0% 6967 04-19-18 B
35 OmegaDJ 60.0% 6971 04-19-18 B
36 magnum12 59.2% 7111 04-19-18 C
37 Thorn 57.0% 7498 04-19-18 C
38 P1 Pause 56.9% 7520 04-19-18 C
39 mike89 55.8% 7704 04-19-18 C
40 Dave Cramer 53.9% 8047 04-19-18 C
41 Groudon199 53.8% 8051 04-19-18 C
42 Parax 53.1% 8174 04-19-18 C
43 Shadow Jacky 52.7% 8249 04-19-18 C
44 Psymar 47.7% 9115 04-19-18 C
45 Arch 46.9% 9268 04-19-18 C
46 Chao_Fan 45.9% 9440 04-19-18 C
47 mauserman 45.1% 9582 04-19-18 C
48 Quartz 44.9% 9619 04-19-18 C
49 teamblackarms 44.0% 9762 04-19-18 C
50 Calfd 43.4% 9866 04-19-18 C
51 Psyknux 43.3% 9899 04-19-18 C
52 James_Bertolli 43.0% 9936 04-19-18 C
53 NintenDan 42.6% 10012 04-19-18 C
54 Webber3000 42.1% 10103 04-19-18 C
55 Turbos 41.9% 10128 04-19-18 C
56 Ring Rush 41.7% 10169 04-19-18 C
57 Cream147 41.5% 10203 04-19-18 C
58 videogamemaster777 41.4% 10223 04-19-18 C
59 Fr3nZy 41.3% 10238 04-19-18 C
60 Siavash Tazari 41.2% 10258 04-19-18 C
61 buddychaos0415 40.6% 10360 04-19-18 C
62 SadisticMystic 40.2% 10439 04-19-18 C
63 ethmar 39.7% 10514 04-19-18 D
64 eggFL 39.3% 10585 04-19-18 D
65 SB737 37.7% 10863 04-19-18 D
66 supersonic465 37.3% 10940 04-19-18 D
67 supersonicfan 36.7% 11051 04-19-18 D
68 FuzZerd 35.5% 11259 04-19-18 D
69 Aitamen 35.0% 11342 04-19-18 D
70 elecmouse101 34.6% 11408 04-19-18 D
71 BigAL49 34.6% 11409 04-19-18 D
72 danieldude 34.4% 11438 04-19-18 D
73 Austinf 33.6% 11584 04-19-18 D
74 metanightmare22 33.3% 11631 04-19-18 D
75 Cyan Ryan 33.2% 11652 04-19-18 D
76 dabestgamer 32.9% 11708 04-19-18 D
77 MiStEr_ShAoLiN 32.9% 11716 04-19-18 D
78 Andrea Ritsu 32.1% 11847 04-19-18 D
79 itsPersonnal 31.7% 11919 04-19-18 D
80 Cybrax 31.1% 12030 04-19-18 D
81 JamminX42 30.9% 12057 04-19-18 D
82 SilvertheAlmighty 30.7% 12087 04-19-18 D
83 Nim 30.6% 12110 04-19-18 D
84 VMU Player Banned 29.0% 12394 04-19-18 D
85 Staf 28.5% 12478 04-19-18 D
86 Omega Rafael Santos 28.4% 12485 04-19-18 D
87 The T 28.1% 12551 04-19-18 D
88 EngiNerd 27.8% 12590 04-19-18 D
89 lordmetalsonic 27.4% 12675 04-19-18 D
90 Hipertails12 26.9% 12757 04-19-18 D
91 welldooder64 26.8% 12770 04-19-18 D
92 GreatStar 26.6% 12813 04-19-18 D
93 The Great Lord Mick 26.4% 12838 04-19-18 D
94 Sondow 26.3% 12853 04-19-18 D
95 Mastakirby 26.3% 12861 04-19-18 D
96 LinksDarkArrows 26.1% 12896 04-19-18 D
97 Skylace 25.2% 13052 04-19-18 D
98 a_moustache 24.2% 13232 04-19-18 D
99 Rolken 23.7% 13315 04-19-18 D
100 Xia 22.0% 13607 04-19-18 D
101 Spinballwizard 22.0% 13608 04-19-18 D
102 Kogen Player Banned 22.0% 13612 04-19-18 D
103 Twilisailor 21.6% 13685 04-19-18 D
104 f0rever_zer0 21.5% 13702 04-19-18 D
105 Cutiefox 21.3% 13729 04-19-18 D
105 Don 21.3% 13729 04-19-18 D
107 Game_Complete 21.2% 13746 04-19-18 D
108 Miles9999 21.1% 13765 04-19-18 D
109 andres430 20.7% 13843 04-19-18 D
110 Cruizer 20.4% 13882 04-19-18 D
111 iSonicKid2K 20.3% 13906 04-19-18 D
112 SADXTryHard 20.1% 13941 04-19-18 D
113 GarnetPrincess 19.6% 14027 04-19-18 E
114 N 19.3% 14081 04-19-18 E
115 AxlThunder 19.0% 14130 04-19-18 E
116 Niczur 19.0% 14136 04-19-18 E
117 knuckles_sonic8 18.5% 14222 04-19-18 E
118 The Knuckles Chao 18.2% 14271 04-19-18 E
119 KinkyCadence 18.2% 14272 04-19-18 E
120 Team_Yoshi 17.8% 14337 04-19-18 E
120 Termon 17.8% 14337 04-19-18 E
122 LittleBigness 17.8% 14352 04-19-18 E
123 SonicWinDX 17.6% 14374 04-19-18 E
124 FoxBoy 17.5% 14390 04-19-18 E
125 Drakodan 16.9% 14510 04-19-18 E
126 Sonic Singularity 15.9% 14680 04-19-18 E
127 Pokemonmaster888 15.6% 14736 04-19-18 E
128 paulie9990 15.2% 14797 04-19-18 E
129 SilverSonic 14.6% 14907 04-19-18 E
130 MPit08 14.4% 14930 04-19-18 E
131 WeegeeZV 14.2% 14972 04-19-18 E
132 koinu93 14.1% 14993 04-19-18 E
133 Mo Player Banned 14.1% 14998 04-19-18 E
134 HyperSonic64 13.6% 15077 04-19-18 E
135 Cod4Scopes 13.6% 15078 04-19-18 E
136 booo95 13.4% 15104 04-19-18 E
137 Jerzia 13.4% 15120 04-19-18 E
138 Chawkk 13.3% 15122 04-19-18 E
139 Hunters13 13.1% 15170 04-19-18 E
140 SuperSonic101 13.1% 15171 04-19-18 E
141 Maxinfamily 13.0% 15188 04-19-18 E
142 Kanimayo_Jp 12.6% 15254 04-19-18 E
143 LilZero 12.6% 15255 04-19-18 E
144 BrokenArthritis 12.5% 15277 04-19-18 E
145 PsyBorg 12.4% 15293 04-19-18 E
146 Flying Fox 12.3% 15300 04-19-18 E
147 Therio 12.0% 15354 04-19-18 E
148 sonicspeed 11.9% 15383 04-19-18 E
149 douglas 11.8% 15397 04-19-18 E
150 Matt_TY 11.4% 15461 04-19-18 E
151 thewaytodawnnn 11.4% 15466 04-19-18 E
152 ModifiedMonkee 11.2% 15498 04-19-18 E
153 Cooljay 10.8% 15561 04-19-18 E
154 SuperBlitzCraig 10.7% 15582 04-19-18 E
155 joecoolgames 10.6% 15594 04-19-18 E
156 SeaWolf 10.6% 15598 04-19-18 E
157 videogamer1014 10.5% 15626 04-19-18 E
158 AC-Tygo 10.2% 15671 04-19-18 E
159 welshmoose05 10.2% 15679 04-19-18 E
160 OddCook 9.9% 15716 04-19-18 E
161 crazy1993 9.9% 15723 04-19-18 E
162 TFEC Headshot 9.8% 15738 04-19-18 E
163 Mcshuggets 9.7% 15762 04-19-18 E
164 niscool 9.4% 15808 04-19-18 E
165 Mariobutch 9.3% 15826 04-19-18 E
166 Irregular Zero 9.3% 15836 04-19-18 E
166 nuckrieg 9.3% 15836 04-19-18 E
168 SonicAD 9.2% 15854 04-19-18 E
169 Shadowthegreat 9.0% 15880 04-19-18 E
170 superjupi 9.0% 15882 04-19-18 E
171 SirTobbii 9.0% 15887 04-19-18 E
172 sonamyfan666 8.7% 15931 04-19-18 E
173 iarebored 8.6% 15944 04-19-18 E
174 Powerjohn25 8.6% 15947 04-19-18 E
175 SaviourDC 8.6% 15953 04-19-18 E
176 SonicKnuckles 8.6% 15956 04-19-18 E
177 Werey 8.2% 16017 04-19-18 E
178 adf 8.2% 16020 04-19-18 E
179 Megaman EXE565 8.0% 16062 04-19-18 E
180 ArcticDragon 7.6% 16129 04-19-18 E
181 Platformer 7.6% 16131 04-19-18 E
182 timpkmn89 7.5% 16148 04-19-18 E
183 wheatrich 7.4% 16163 04-19-18 E
184 Swift Hobo 7.3% 16176 04-19-18 E
185 FocusSight64 7.3% 16178 04-19-18 E
186 Rickyman48 7.1% 16212 04-19-18 E
187 KitsuneYamaro 7.0% 16226 04-19-18 E
188 Triseena 6.9% 16253 04-19-18 E
189 Destroyer121121 6.6% 16306 04-19-18 E
190 dShadow 6.6% 16307 04-19-18 E
191 Starlight Sable 6.5% 16318 04-19-18 E
192 CyberShadow 6.5% 16323 04-19-18 E
193 slade23 6.4% 16327 04-19-18 E
194 IsisDazs 6.3% 16353 04-19-18 E
195 BlankTH 6.1% 16387 04-19-18 E
196 Monkeh 6.1% 16395 04-19-18 E
197 Redd 6.0% 16413 04-19-18 E
198 Badlex727 5.9% 16417 04-19-18 E
199 SonicU260 5.9% 16427 04-19-18 E
200 Richied 5.8% 16444 04-19-18 E
201 DaDude 5.7% 16463 04-19-18 E
201 Swinkly 5.7% 16463 04-19-18 E
203 Crispian 5.6% 16466 04-19-18 E
204 Vicklaw 5.6% 16477 04-19-18 E
205 sonicd5 5.6% 16479 04-19-18 E
206 Zip 5.6% 16483 04-19-18 E
207 VeritasDL 5.2% 16543 04-19-18 E
208 ALundstrom10 5.2% 16548 04-19-18 E
209 tal39h 5.2% 16553 04-19-18 E
210 Kirbymon30 5.1% 16570 04-19-18 E
211 soniccoloursunleashed 5.0% 16584 04-19-18 E
212 Drflash55 4.9% 16595 04-19-18 E
213 Bass 4.9% 16603 04-19-18 E
214 neaolas 4.7% 16625 04-19-18 E
215 superiorsonic 4.7% 16631 04-19-18 E
216 zapp 4.7% 16640 04-19-18 E
217 Yish 4.6% 16643 04-19-18 E
218 UninspiredUsername 4.6% 16650 04-19-18 E
219 Sonicsuperstar1 4.5% 16663 04-19-18 E
220 gamefreak1292 4.5% 16672 04-19-18 E
221 Sora_yx 4.3% 16701 04-19-18 E
222 Chaos_Overlord 4.1% 16728 04-19-18 E
223 TakaRikka 4.0% 16749 04-19-18 E
224 Valfore 4.0% 16753 04-19-18 E
225 Dage4Aquatic 3.9% 16775 04-19-18 E
226 ShinigamiMachine 3.8% 16790 04-19-18 E
227 Regano1000 3.8% 16797 04-19-18 E
228 MK 3.7% 16810 04-19-18 E
229 Ace747 3.6% 16830 04-19-18 E
230 Jua Rever 3.4% 16853 04-19-18 E
231 Illidan 3.2% 16902 04-19-18 E
232 HHNNBBHHN 3.1% 16906 04-19-18 E
233 Venick409 3.1% 16909 04-19-18 E
234 Brian_pso 3.1% 16910 04-19-18 E
235 Sithwarrior26 3.1% 16911 04-19-18 E
236 nman36 3.1% 16913 04-19-18 E
237 Egor305 3.0% 16934 04-19-18 E
237 SkyBon 3.0% 16934 04-19-18 E
239 ingx24 2.9% 16940 04-19-18 E
240 TheChaosEmeraIds 2.9% 16944 04-19-18 E
241 dekki1234 2.9% 16950 04-19-18 E
242 Nickson98 2.9% 16952 04-19-18 E
243 Fozer 2.8% 16966 04-19-18 E
244 Colomb_30 2.8% 16969 04-19-18 E
244 FSSRandomvids 2.8% 16969 04-19-18 E
246 Aiko 2.7% 16981 04-19-18 E
247 sonic29887 2.7% 16984 04-19-18 E
248 TheUltraBlur 2.6% 16994 04-19-18 E
249 1stKirbyever 2.6% 16998 04-19-18 E
250 TimTH 2.5% 17014 04-19-18 E
251 Th4tN1nj4Turtl3 2.4% 17035 04-19-18 E
252 Cort_pso 2.3% 17046 04-19-18 E
253 ieatatsonic 2.3% 17052 04-19-18 E
254 Mariosonic15 2.2% 17060 04-19-18 E
255 Doom-9 2.2% 17062 04-19-18 E
256 Artie 2.2% 17073 04-19-18 E
257 MStitomix 2.2% 17076 04-19-18 E
258 HermitHelmet 2.1% 17080 04-19-18 E
259 Got4n 2.0% 17101 04-19-18 E
259 SuperSonic71087 2.0% 17101 04-19-18 E
261 Jose_15 2.0% 17111 04-19-18 E
262 Questionguy555 1.9% 17114 04-19-18 E
263 djmat 1.9% 17127 04-19-18 E
264 SuperSonicfan9595 1.8% 17132 04-19-18 E
265 sonicandamy Player Banned 1.7% 17149 04-19-18 E
266 Heroes_Hater 1.7% 17151 04-19-18 E
267 Paixii 1.7% 17159 04-19-18 E
268 LancexExWx 1.7% 17160 04-19-18 E
269 son1cgu1tar 1.7% 17164 04-19-18 E
270 BallzeH 1.6% 17177 04-19-18 E
270 Mankster101 1.6% 17177 04-19-18 E
272 BecauseWarAnvil 1.5% 17184 04-19-18 E
273 Jamixesa 1.5% 17189 04-19-18 E
274 SpiritDragon1995 1.5% 17196 04-19-18 E
275 Shanekilz 1.5% 17199 04-19-18 E
276 Crydio 1.4% 17200 04-19-18 E
277 MarewBFN 1.3% 17217 04-19-18 E
278 stanski 1.3% 17219 04-19-18 E
279 Sonique Hedgehog 1.3% 17223 04-19-18 E
280 Blue Infamy 1.2% 17235 04-19-18 E
281 p0ker 1.2% 17236 04-19-18 E
282 ArthurVGCP 1.2% 17240 04-19-18 E
283 ErrortheCucco 1.2% 17246 04-19-18 E
284 Rikum22 1.2% 17249 04-19-18 E
285 Arthas 1.1% 17253 04-19-18 E
286 sonic1001 1.1% 17257 04-19-18 E
287 syco1098 1.1% 17264 04-19-18 E
288 WingedInsignia 1.1% 17265 04-19-18 E
289 AJSIV 1.1% 17266 04-19-18 E
290 Sonic the Hedgehod16 1.0% 17269 04-19-18 E
291 ASINISTERTACO 1.0% 17275 04-19-18 E
292 sonicfan9 1.0% 17281 04-19-18 E
293 BlackArmsShadow 0.9% 17289 04-19-18 E
294 themachoman202 0.9% 17290 04-19-18 E
295 darkstarblaze 0.9% 17294 04-19-18 E
296 shadowblast63 Player Banned 0.9% 17298 04-19-18 E
297 Fivavoa 0.9% 17300 04-19-18 E
298 Greham Adelphis 0.9% 17301 04-19-18 E
298 MastaToken 0.9% 17301 04-19-18 E
300 Mr. Jones 0.9% 17302 04-19-18 E
301 Ben1502 0.8% 17304 04-19-18 E
302 arcfx1985 0.8% 17305 04-19-18 E
303 TommyeAsY 0.8% 17307 04-19-18 E
304 ptorflaxendrosis 0.8% 17308 04-19-18 E
305 FlandreScarlet9999vr 0.8% 17313 04-19-18 E
305 Gvozdevik 0.8% 17313 04-19-18 E
307 Knuckles 0.8% 17314 04-19-18 E
308 Zeldocto 0.8% 17315 04-19-18 E
309 KaM Mark MaK 0.8% 17318 04-19-18 E
310 BeeAwwb 0.8% 17319 04-19-18 E
311 ShadouZaHejjihoggu 0.7% 17326 04-19-18 E
312 Sarger001 0.7% 17331 04-19-18 E
313 Sonic The Star 0.7% 17334 04-19-18 E
314 darkersupershadic 0.7% 17335 04-19-18 E
314 dragondragon18 0.7% 17335 04-19-18 E
314 Sonic62 0.7% 17335 04-19-18 E
317 Sogeking 0.7% 17338 04-19-18 E
318 Grady219 0.6% 17342 04-19-18 E
318 Shadygamerfreak 0.6% 17342 04-19-18 E
320 SonicK100 0.6% 17343 04-19-18 E
321 BioShadow 0.6% 17344 04-19-18 E
322 Jawaah 0.6% 17350 04-19-18 E
323 Antek 0.6% 17352 04-19-18 E
324 Klaus 0.6% 17354 04-19-18 E
324 SilverK 0.6% 17354 04-19-18 E
326 SpinDashMaster 0.5% 17359 04-19-18 E
327 Videogamer123 0.5% 17365 04-19-18 E
328 oTaiIilLsS 0.4% 17379 04-19-18 E
329 isaihtb11 0.4% 17380 04-19-18 E
330 zaktu40 0.4% 17382 04-19-18 E
331 OhNoes! 0.4% 17383 04-19-18 E
332 gaara1234 0.4% 17385 04-19-18 E
333 Mad Andy 0.4% 17386 04-19-18 E
334 S-MS32X-S 0.4% 17387 04-19-18 E
335 gamed00d 0.4% 17388 04-19-18 E
336 Mister_Slick 0.3% 17399 04-19-18 E
337 Rush Hero 0.3% 17402 04-19-18 E
337 Sonic06Fan 0.3% 17402 04-19-18 E
339 ChaosNexuss 0.3% 17403 04-19-18 E
340 SonicMega167 0.3% 17408 04-19-18 E
341 Iwannabelink 0.2% 17409 04-19-18 E
342 sonknuck23 0.2% 17413 04-19-18 E
343 gamer1245 0.2% 17421 04-19-18 E
344 DanielTheFalcon 0.2% 17423 04-19-18 E
345 Burningskull123 0.1% 17427 04-19-18 E
346 Sonicontherun 0.1% 17438 04-19-18 E
347 Lil_Dude 0.1% 17443 04-19-18 E
348 antiwwe 0.0% 17444 04-19-18 E
349 Tyrouble 0.0% 17446 04-19-18 E
350 Genuine Hedgehog 0.0% 17447 04-19-18 E
350 SonataSpinDash 0.0% 17447 04-19-18 E
352 Cbwade15 0.0% 17450 04-19-18 E
353 MegabombBlade 0.0% 17461 04-19-18 E
353 neji_hyuuga 0.0% 17461 04-19-18 E
353 Over 0.0% 17461 04-19-18 E
353 sdj6707 Player Banned 0.0% 17461 04-19-18 E
353 Tran Sonic Fan Player Banned 0.0% 17461 04-19-18 E

This page is using the New Data Table System. [FUTURE]


-- Back to Normal Skin --
Game ID: 3 | Category ID: 10
Hits: 72,272 | Hits This Month: 131 | DB Calls: 16 | Mem Usage: 5.49 MB | Time: 0.15s | Printable

The Sonic Center v3.9
Copyright 2003-2011 by The Sonic Center Team.